sensor_id;sensor_type;location;lat;lon;timestamp;pressure;altitude;pressure_sealevel;temperature;humidity
63691;BME280;49837;57.280;27.070;2023-12-04T00:00:00;99848.0;;;-10.11;100.0
63691;BME280;49837;57.280;27.070;2023-12-04T00:01:00;99848.0;;;-10.11;100.0
63691;BME280;49837;57.280;27.070;2023-12-04T00:02:00;99857.77;;;-10.14;100.0
63691;BME280;49837;57.280;27.070;2023-12-04T00:03:01;99853.31;;;-10.17;100.0
63691;BME280;49837;57.280;27.070;2023-12-04T00:04:01;99855.44;;;-10.14;100.0
63691;BME280;49837;57.280;27.070;2023-12-04T00:05:02;99856.95;;;-10.12;100.0
63691;BME280;49837;57.280;27.070;2023-12-04T00:06:03;99849.94;;;-10.11;100.0
63691;BME280;49837;57.280;27.070;2023-12-04T00:07:03;99853.8;;;-10.16;100.0
63691;BME280;49837;57.280;27.070;2023-12-04T00:08:03;99856.83;;;-10.2;100.0
63691;BME280;49837;57.280;27.070;2023-12-04T00:09:03;99854.82;;;-10.24;100.0
63691;BME280;49837;57.280;27.070;2023-12-04T00:10:04;99853.7;;;-10.17;100.0
63691;BME280;49837;57.280;27.070;2023-12-04T00:11:05;99855.01;;;-10.17;100.0
63691;BME280;49837;57.280;27.070;2023-12-04T00:12:05;99854.99;;;-10.22;100.0
63691;BME280;49837;57.280;27.070;2023-12-04T00:13:05;99851.78;;;-10.29;100.0
63691;BME280;49837;57.280;27.070;2023-12-04T00:14:06;99851.66;;;-10.33;100.0
63691;BME280;49837;57.280;27.070;2023-12-04T00:15:07;99853.7;;;-10.31;100.0
63691;BME280;49837;57.280;27.070;2023-12-04T00:16:07;99852.84;;;-10.32;100.0
63691;BME280;49837;57.280;27.070;2023-12-04T00:17:07;99852.27;;;-10.33;100.0
63691;BME280;49837;57.280;27.070;2023-12-04T00:18:08;99854.27;;;-10.34;100.0
63691;BME280;49837;57.280;27.070;2023-12-04T00:19:09;99849.7;;;-10.35;100.0
63691;BME280;49837;57.280;27.070;2023-12-04T00:20:09;99853.47;;;-10.33;100.0
63691;BME280;49837;57.280;27.070;2023-12-04T00:21:09;99855.45;;;-10.33;100.0
63691;BME280;49837;57.280;27.070;2023-12-04T00:22:09;99854.7;;;-10.36;100.0
63691;BME280;49837;57.280;27.070;2023-12-04T00:23:10;99853.53;;;-10.38;100.0
63691;BME280;49837;57.280;27.070;2023-12-04T00:24:11;99855.8;;;-10.38;100.0
63691;BME280;49837;57.280;27.070;2023-12-04T00:25:11;99850.51;;;-10.39;100.0
63691;BME280;49837;57.280;27.070;2023-12-04T00:26:12;99854.5;;;-10.38;100.0
63691;BME280;49837;57.280;27.070;2023-12-04T00:27:12;99856.98;;;-10.4;100.0
63691;BME280;49837;57.280;27.070;2023-12-04T00:28:12;99852.9;;;-10.41;100.0
63691;BME280;49837;57.280;27.070;2023-12-04T00:29:13;99858.84;;;-10.4;100.0
63691;BME280;49837;57.280;27.070;2023-12-04T00:30:13;99861.86;;;-10.37;100.0
63691;BME280;49837;57.280;27.070;2023-12-04T00:31:14;99862.67;;;-10.39;100.0
63691;BME280;49837;57.280;27.070;2023-12-04T00:32:14;99859.35;;;-10.37;100.0
63691;BME280;49837;57.280;27.070;2023-12-04T00:33:14;99857.79;;;-10.33;100.0
63691;BME280;49837;57.280;27.070;2023-12-04T00:34:15;99860.08;;;-10.34;100.0
63691;BME280;49837;57.280;27.070;2023-12-04T00:35:15;99855.89;;;-10.33;100.0
63691;BME280;49837;57.280;27.070;2023-12-04T00:36:16;99857.66;;;-10.37;100.0
63691;BME280;49837;57.280;27.070;2023-12-04T00:37:16;99853.74;;;-10.42;100.0
63691;BME280;49837;57.280;27.070;2023-12-04T00:38:17;99855.73;;;-10.39;100.0
63691;BME280;49837;57.280;27.070;2023-12-04T00:39:17;99852.3;;;-10.4;100.0
63691;BME280;49837;57.280;27.070;2023-12-04T00:40:18;99850.42;;;-10.42;100.0
63691;BME280;49837;57.280;27.070;2023-12-04T00:41:18;99852.53;;;-10.45;100.0
63691;BME280;49837;57.280;27.070;2023-12-04T00:42:19;99854.26;;;-10.46;100.0
63691;BME280;49837;57.280;27.070;2023-12-04T00:43:19;99852.53;;;-10.45;100.0
63691;BME280;49837;57.280;27.070;2023-12-04T00:44:19;99851.8;;;-10.49;100.0
63691;BME280;49837;57.280;27.070;2023-12-04T00:45:20;99851.19;;;-10.5;100.0
63691;BME280;49837;57.280;27.070;2023-12-04T00:46:21;99855.85;;;-10.51;100.0
63691;BME280;49837;57.280;27.070;2023-12-04T00:47:21;99859.66;;;-10.56;100.0
63691;BME280;49837;57.280;27.070;2023-12-04T00:48:21;99854.51;;;-10.56;100.0
63691;BME280;49837;57.280;27.070;2023-12-04T00:49:22;99856.02;;;-10.58;100.0
63691;BME280;49837;57.280;27.070;2023-12-04T00:50:22;99856.44;;;-10.57;100.0
63691;BME280;49837;57.280;27.070;2023-12-04T00:51:23;99858.06;;;-10.56;100.0
63691;BME280;49837;57.280;27.070;2023-12-04T00:52:23;99860.05;;;-10.58;100.0
63691;BME280;49837;57.280;27.070;2023-12-04T00:53:24;99860.31;;;-10.59;100.0
63691;BME280;49837;57.280;27.070;2023-12-04T00:54:24;99854.95;;;-10.63;100.0
63691;BME280;49837;57.280;27.070;2023-12-04T00:55:25;99852.83;;;-10.66;100.0
63691;BME280;49837;57.280;27.070;2023-12-04T00:56:25;99856.95;;;-10.72;100.0
63691;BME280;49837;57.280;27.070;2023-12-04T00:57:25;99854.09;;;-10.76;100.0
63691;BME280;49837;57.280;27.070;2023-12-04T00:58:26;99854.1;;;-10.77;100.0
63691;BME280;49837;57.280;27.070;2023-12-04T00:59:26;99856.17;;;-10.79;100.0
63691;BME280;49837;57.280;27.070;2023-12-04T01:00:27;99853.74;;;-10.81;100.0
63691;BME280;49837;57.280;27.070;2023-12-04T01:01:27;99853.91;;;-10.83;100.0
63691;BME280;49837;57.280;27.070;2023-12-04T01:02:28;99854.23;;;-10.86;100.0
63691;BME280;49837;57.280;27.070;2023-12-04T01:03:28;99849.28;;;-10.83;100.0
63691;BME280;49837;57.280;27.070;2023-12-04T01:04:29;99853.75;;;-10.87;100.0
63691;BME280;49837;57.280;27.070;2023-12-04T01:05:29;99855.8;;;-10.84;100.0
63691;BME280;49837;57.280;27.070;2023-12-04T01:06:29;99852.8;;;-10.79;100.0
63691;BME280;49837;57.280;27.070;2023-12-04T01:07:30;99855.23;;;-10.77;100.0
63691;BME280;49837;57.280;27.070;2023-12-04T01:08:30;99855.14;;;-10.82;100.0
63691;BME280;49837;57.280;27.070;2023-12-04T01:09:31;99854.46;;;-10.81;100.0
63691;BME280;49837;57.280;27.070;2023-12-04T01:10:32;99857.81;;;-10.84;100.0
63691;BME280;49837;57.280;27.070;2023-12-04T01:11:32;99849.34;;;-10.85;100.0
63691;BME280;49837;57.280;27.070;2023-12-04T01:12:32;99855.11;;;-10.91;100.0
63691;BME280;49837;57.280;27.070;2023-12-04T01:13:33;99856.41;;;-10.91;100.0
63691;BME280;49837;57.280;27.070;2023-12-04T01:14:33;99855.57;;;-10.96;100.0
63691;BME280;49837;57.280;27.070;2023-12-04T01:15:34;99853.41;;;-11.01;100.0
63691;BME280;49837;57.280;27.070;2023-12-04T01:16:34;99853.14;;;-11.02;100.0
63691;BME280;49837;57.280;27.070;2023-12-04T01:17:35;99854.7;;;-11.07;100.0
63691;BME280;49837;57.280;27.070;2023-12-04T01:18:35;99854.23;;;-11.09;100.0
63691;BME280;49837;57.280;27.070;2023-12-04T01:19:36;99850.84;;;-11.07;100.0
63691;BME280;49837;57.280;27.070;2023-12-04T01:20:36;99855.2;;;-11.14;100.0
63691;BME280;49837;57.280;27.070;2023-12-04T01:21:37;99857.89;;;-11.25;100.0
63691;BME280;49837;57.280;27.070;2023-12-04T01:22:37;99853.8;;;-11.29;100.0
63691;BME280;49837;57.280;27.070;2023-12-04T01:23:37;99854.69;;;-11.32;100.0
63691;BME280;49837;57.280;27.070;2023-12-04T01:24:38;99851.05;;;-11.32;100.0
63691;BME280;49837;57.280;27.070;2023-12-04T01:25:38;99848.33;;;-11.35;100.0
63691;BME280;49837;57.280;27.070;2023-12-04T01:26:39;99851.12;;;-11.34;100.0
63691;BME280;49837;57.280;27.070;2023-12-04T01:27:39;99849.09;;;-11.34;100.0
63691;BME280;49837;57.280;27.070;2023-12-04T01:28:40;99854.07;;;-11.33;100.0
63691;BME280;49837;57.280;27.070;2023-12-04T01:29:40;99848.3;;;-11.31;100.0
63691;BME280;49837;57.280;27.070;2023-12-04T01:30:41;99850.14;;;-11.38;100.0
63691;BME280;49837;57.280;27.070;2023-12-04T01:31:41;99848.7;;;-11.31;100.0
63691;BME280;49837;57.280;27.070;2023-12-04T01:32:41;99851.06;;;-11.32;100.0
63691;BME280;49837;57.280;27.070;2023-12-04T01:33:42;99847.93;;;-11.35;100.0
63691;BME280;49837;57.280;27.070;2023-12-04T01:34:42;99845.64;;;-11.45;100.0
63691;BME280;49837;57.280;27.070;2023-12-04T01:35:43;99849.12;;;-11.46;100.0
63691;BME280;49837;57.280;27.070;2023-12-04T01:36:43;99846.5;;;-11.53;100.0
63691;BME280;49837;57.280;27.070;2023-12-04T01:37:44;99850.72;;;-11.59;100.0
63691;BME280;49837;57.280;27.070;2023-12-04T01:38:44;99849.37;;;-11.52;100.0
63691;BME280;49837;57.280;27.070;2023-12-04T01:39:45;99846.8;;;-11.52;100.0
63691;BME280;49837;57.280;27.070;2023-12-04T01:40:45;99855.97;;;-11.52;100.0
63691;BME280;49837;57.280;27.070;2023-12-04T01:41:46;99851.27;;;-11.48;100.0
63691;BME280;49837;57.280;27.070;2023-12-04T01:42:46;99851.39;;;-11.49;100.0
63691;BME280;49837;57.280;27.070;2023-12-04T01:43:46;99843.98;;;-11.49;100.0
63691;BME280;49837;57.280;27.070;2023-12-04T01:44:47;99847.1;;;-11.45;100.0
63691;BME280;49837;57.280;27.070;2023-12-04T01:45:49;99847.62;;;-11.41;100.0
63691;BME280;49837;57.280;27.070;2023-12-04T01:46:49;99845.11;;;-11.4;100.0
63691;BME280;49837;57.280;27.070;2023-12-04T01:47:48;99839.65;;;-11.39;100.0
63691;BME280;49837;57.280;27.070;2023-12-04T01:48:49;99847.23;;;-11.35;100.0
63691;BME280;49837;57.280;27.070;2023-12-04T01:49:49;99846.05;;;-11.31;100.0
63691;BME280;49837;57.280;27.070;2023-12-04T01:50:50;99848.91;;;-11.3;100.0
63691;BME280;49837;57.280;27.070;2023-12-04T01:51:51;99844.66;;;-11.3;100.0
63691;BME280;49837;57.280;27.070;2023-12-04T01:52:52;99845.84;;;-11.27;100.0
63691;BME280;49837;57.280;27.070;2023-12-04T01:53:52;99844.47;;;-11.23;100.0
63691;BME280;49837;57.280;27.070;2023-12-04T01:54:52;99842.25;;;-11.2;100.0
63691;BME280;49837;57.280;27.070;2023-12-04T01:55:53;99842.67;;;-11.21;100.0
63691;BME280;49837;57.280;27.070;2023-12-04T01:56:53;99844.44;;;-11.19;100.0
63691;BME280;49837;57.280;27.070;2023-12-04T01:57:54;99845.28;;;-11.19;100.0
63691;BME280;49837;57.280;27.070;2023-12-04T01:58:54;99845.45;;;-11.16;100.0
63691;BME280;49837;57.280;27.070;2023-12-04T01:59:54;99842.27;;;-11.15;100.0
63691;BME280;49837;57.280;27.070;2023-12-04T02:00:54;99846.79;;;-11.15;100.0
63691;BME280;49837;57.280;27.070;2023-12-04T02:01:55;99847.74;;;-11.12;100.0
63691;BME280;49837;57.280;27.070;2023-12-04T02:02:56;99849.92;;;-11.06;100.0
63691;BME280;49837;57.280;27.070;2023-12-04T02:03:56;99849.19;;;-11.1;100.0
63691;BME280;49837;57.280;27.070;2023-12-04T02:04:57;99850.94;;;-11.23;100.0
63691;BME280;49837;57.280;27.070;2023-12-04T02:05:59;99848.53;;;-11.28;100.0
63691;BME280;49837;57.280;27.070;2023-12-04T02:06:57;99850.48;;;-11.24;100.0
63691;BME280;49837;57.280;27.070;2023-12-04T02:07:58;99846.09;;;-11.19;100.0
63691;BME280;49837;57.280;27.070;2023-12-04T02:08:58;99849.14;;;-11.2;100.0
63691;BME280;49837;57.280;27.070;2023-12-04T02:09:59;99849.73;;;-11.27;100.0
63691;BME280;49837;57.280;27.070;2023-12-04T02:10:59;99848.81;;;-11.26;100.0
63691;BME280;49837;57.280;27.070;2023-12-04T02:11:59;99846.56;;;-11.2;100.0
63691;BME280;49837;57.280;27.070;2023-12-04T02:13:00;99843.93;;;-11.21;100.0
63691;BME280;49837;57.280;27.070;2023-12-04T02:14:00;99852.05;;;-11.22;100.0
63691;BME280;49837;57.280;27.070;2023-12-04T02:15:01;99846.5;;;-11.24;100.0
63691;BME280;49837;57.280;27.070;2023-12-04T02:16:03;99844.55;;;-11.23;100.0
63691;BME280;49837;57.280;27.070;2023-12-04T02:17:03;99843.35;;;-11.22;100.0
63691;BME280;49837;57.280;27.070;2023-12-04T02:18:03;99841.8;;;-11.15;100.0
63691;BME280;49837;57.280;27.070;2023-12-04T02:19:03;99839.73;;;-11.09;100.0
63691;BME280;49837;57.280;27.070;2023-12-04T02:20:04;99842.17;;;-11.01;100.0
63691;BME280;49837;57.280;27.070;2023-12-04T02:21:05;99843.75;;;-11.01;100.0
63691;BME280;49837;57.280;27.070;2023-12-04T02:22:04;99841.84;;;-11.05;100.0
63691;BME280;49837;57.280;27.070;2023-12-04T02:23:05;99844.93;;;-11.1;100.0
63691;BME280;49837;57.280;27.070;2023-12-04T02:24:05;99840.64;;;-11.08;100.0
63691;BME280;49837;57.280;27.070;2023-12-04T02:25:08;99842.83;;;-11.01;100.0
63691;BME280;49837;57.280;27.070;2023-12-04T02:26:11;99835.3;;;-11.0;100.0
63691;BME280;49837;57.280;27.070;2023-12-04T02:27:23;99841.02;;;-11.0;100.0
63691;BME280;49837;57.280;27.070;2023-12-04T02:28:14;99838.47;;;-10.98;100.0
63691;BME280;49837;57.280;27.070;2023-12-04T02:29:16;99834.41;;;-10.91;100.0
63691;BME280;49837;57.280;27.070;2023-12-04T02:30:21;99836.27;;;-10.83;100.0
63691;BME280;49837;57.280;27.070;2023-12-04T02:31:21;99831.65;;;-10.78;100.0
63691;BME280;49837;57.280;27.070;2023-12-04T02:32:21;99834.55;;;-10.78;100.0
63691;BME280;49837;57.280;27.070;2023-12-04T02:33:23;99836.14;;;-10.8;100.0
63691;BME280;49837;57.280;27.070;2023-12-04T02:34:23;99833.95;;;-10.76;100.0
63691;BME280;49837;57.280;27.070;2023-12-04T02:35:24;99834.92;;;-10.74;100.0
63691;BME280;49837;57.280;27.070;2023-12-04T02:36:27;99834.61;;;-10.77;100.0
63691;BME280;49837;57.280;27.070;2023-12-04T02:37:26;99836.61;;;-10.89;100.0
63691;BME280;49837;57.280;27.070;2023-12-04T02:38:27;99834.05;;;-10.96;100.0
63691;BME280;49837;57.280;27.070;2023-12-04T02:39:27;99836.09;;;-11.04;100.0
63691;BME280;49837;57.280;27.070;2023-12-04T02:40:28;99838.51;;;-11.1;100.0
63691;BME280;49837;57.280;27.070;2023-12-04T02:41:28;99836.8;;;-11.18;100.0
63691;BME280;49837;57.280;27.070;2023-12-04T02:42:29;99834.41;;;-11.25;100.0
63691;BME280;49837;57.280;27.070;2023-12-04T02:43:29;99832.52;;;-11.28;100.0
63691;BME280;49837;57.280;27.070;2023-12-04T02:44:29;99838.31;;;-11.31;100.0
63691;BME280;49837;57.280;27.070;2023-12-04T02:45:30;99838.83;;;-11.32;100.0
63691;BME280;49837;57.280;27.070;2023-12-04T02:46:30;99837.94;;;-11.32;100.0
63691;BME280;49837;57.280;27.070;2023-12-04T02:47:31;99836.61;;;-11.3;100.0
63691;BME280;49837;57.280;27.070;2023-12-04T02:48:31;99835.82;;;-11.31;100.0
63691;BME280;49837;57.280;27.070;2023-12-04T02:49:32;99836.19;;;-11.39;100.0
63691;BME280;49837;57.280;27.070;2023-12-04T02:50:32;99836.42;;;-11.49;100.0
63691;BME280;49837;57.280;27.070;2023-12-04T02:51:32;99838.55;;;-11.58;100.0
63691;BME280;49837;57.280;27.070;2023-12-04T02:52:33;99837.06;;;-11.68;100.0
63691;BME280;49837;57.280;27.070;2023-12-04T02:53:33;99845.42;;;-11.76;100.0
63691;BME280;49837;57.280;27.070;2023-12-04T02:54:34;99843.75;;;-11.78;100.0
63691;BME280;49837;57.280;27.070;2023-12-04T02:55:34;99839.95;;;-11.76;100.0
63691;BME280;49837;57.280;27.070;2023-12-04T02:56:35;99840.58;;;-11.8;100.0
63691;BME280;49837;57.280;27.070;2023-12-04T02:57:35;99839.73;;;-11.75;100.0
63691;BME280;49837;57.280;27.070;2023-12-04T02:58:36;99837.47;;;-11.7;100.0
63691;BME280;49837;57.280;27.070;2023-12-04T02:59:36;99839.73;;;-11.67;100.0
63691;BME280;49837;57.280;27.070;2023-12-04T03:00:36;99834.78;;;-11.59;100.0
63691;BME280;49837;57.280;27.070;2023-12-04T03:01:37;99832.83;;;-11.58;100.0
63691;BME280;49837;57.280;27.070;2023-12-04T03:02:37;99832.89;;;-11.56;100.0
63691;BME280;49837;57.280;27.070;2023-12-04T03:03:38;99834.72;;;-11.52;100.0
63691;BME280;49837;57.280;27.070;2023-12-04T03:04:38;99830.75;;;-11.48;100.0
63691;BME280;49837;57.280;27.070;2023-12-04T03:05:39;99835.66;;;-11.54;100.0
63691;BME280;49837;57.280;27.070;2023-12-04T03:06:39;99840.22;;;-11.56;100.0
63691;BME280;49837;57.280;27.070;2023-12-04T03:07:40;99835.66;;;-11.62;100.0
63691;BME280;49837;57.280;27.070;2023-12-04T03:08:40;99839.33;;;-11.61;100.0
63691;BME280;49837;57.280;27.070;2023-12-04T03:09:41;99841.65;;;-11.6;100.0
63691;BME280;49837;57.280;27.070;2023-12-04T03:10:46;99836.17;;;-11.63;100.0
63691;BME280;49837;57.280;27.070;2023-12-04T03:11:46;99837.62;;;-11.63;100.0
63691;BME280;49837;57.280;27.070;2023-12-04T03:12:47;99838.16;;;-11.62;100.0
63691;BME280;49837;57.280;27.070;2023-12-04T03:13:47;99845.85;;;-11.67;100.0
63691;BME280;49837;57.280;27.070;2023-12-04T03:14:48;99840.16;;;-11.68;100.0
63691;BME280;49837;57.280;27.070;2023-12-04T03:15:48;99840.92;;;-11.7;100.0
63691;BME280;49837;57.280;27.070;2023-12-04T03:16:49;99841.35;;;-11.74;100.0
63691;BME280;49837;57.280;27.070;2023-12-04T03:17:49;99841.83;;;-11.77;100.0
63691;BME280;49837;57.280;27.070;2023-12-04T03:18:49;99839.36;;;-11.78;100.0
63691;BME280;49837;57.280;27.070;2023-12-04T03:19:50;99840.65;;;-11.72;100.0
63691;BME280;49837;57.280;27.070;2023-12-04T03:20:50;99846.86;;;-11.69;100.0
63691;BME280;49837;57.280;27.070;2023-12-04T03:21:51;99845.55;;;-11.65;100.0
63691;BME280;49837;57.280;27.070;2023-12-04T03:22:51;99848.3;;;-11.62;100.0
63691;BME280;49837;57.280;27.070;2023-12-04T03:23:52;99845.41;;;-11.62;100.0
63691;BME280;49837;57.280;27.070;2023-12-04T03:24:52;99851.81;;;-11.67;100.0
63691;BME280;49837;57.280;27.070;2023-12-04T03:25:52;99847.89;;;-11.73;100.0
63691;BME280;49837;57.280;27.070;2023-12-04T03:26:53;99844.31;;;-11.77;100.0
63691;BME280;49837;57.280;27.070;2023-12-04T03:27:53;99847.73;;;-11.75;100.0
63691;BME280;49837;57.280;27.070;2023-12-04T03:28:54;99846.73;;;-11.74;100.0
63691;BME280;49837;57.280;27.070;2023-12-04T03:29:54;99846.34;;;-11.74;100.0
63691;BME280;49837;57.280;27.070;2023-12-04T03:30:55;99842.45;;;-11.73;100.0
63691;BME280;49837;57.280;27.070;2023-12-04T03:31:55;99847.2;;;-11.7;100.0
63691;BME280;49837;57.280;27.070;2023-12-04T03:32:56;99843.62;;;-11.68;100.0
63691;BME280;49837;57.280;27.070;2023-12-04T03:33:56;99842.36;;;-11.66;100.0
63691;BME280;49837;57.280;27.070;2023-12-04T03:34:57;99839.83;;;-11.68;100.0
63691;BME280;49837;57.280;27.070;2023-12-04T03:35:58;99840.55;;;-11.71;100.0
63691;BME280;49837;57.280;27.070;2023-12-04T03:36:57;99837.37;;;-11.77;100.0
63691;BME280;49837;57.280;27.070;2023-12-04T03:37:58;99840.92;;;-11.78;100.0
63691;BME280;49837;57.280;27.070;2023-12-04T03:38:58;99841.15;;;-11.8;100.0
63691;BME280;49837;57.280;27.070;2023-12-04T03:39:59;99843.22;;;-11.83;100.0
63691;BME280;49837;57.280;27.070;2023-12-04T03:40:59;99845.84;;;-11.85;100.0
63691;BME280;49837;57.280;27.070;2023-12-04T03:42:00;99844.98;;;-11.86;100.0
63691;BME280;49837;57.280;27.070;2023-12-04T03:43:00;99849.6;;;-11.87;100.0
63691;BME280;49837;57.280;27.070;2023-12-04T03:44:00;99853.61;;;-11.87;100.0
63691;BME280;49837;57.280;27.070;2023-12-04T03:45:01;99849.72;;;-11.87;100.0
63691;BME280;49837;57.280;27.070;2023-12-04T03:46:02;99853.75;;;-11.83;100.0
63691;BME280;49837;57.280;27.070;2023-12-04T03:47:02;99856.98;;;-11.8;100.0
63691;BME280;49837;57.280;27.070;2023-12-04T03:48:03;99856.33;;;-11.8;100.0
63691;BME280;49837;57.280;27.070;2023-12-04T03:49:03;99857.67;;;-11.85;100.0
63691;BME280;49837;57.280;27.070;2023-12-04T03:50:04;99855.78;;;-11.87;100.0
63691;BME280;49837;57.280;27.070;2023-12-04T03:51:05;99856.94;;;-11.91;100.0
63691;BME280;49837;57.280;27.070;2023-12-04T03:52:05;99853.53;;;-11.92;100.0
63691;BME280;49837;57.280;27.070;2023-12-04T03:53:05;99851.8;;;-11.93;100.0
63691;BME280;49837;57.280;27.070;2023-12-04T03:54:05;99858.41;;;-11.93;100.0
63691;BME280;49837;57.280;27.070;2023-12-04T03:55:06;99861.19;;;-11.91;100.0
63691;BME280;49837;57.280;27.070;2023-12-04T03:56:07;99861.72;;;-11.93;100.0
63691;BME280;49837;57.280;27.070;2023-12-04T03:57:06;99862.25;;;-11.93;100.0
63691;BME280;49837;57.280;27.070;2023-12-04T03:58:07;99859.81;;;-11.98;100.0
63691;BME280;49837;57.280;27.070;2023-12-04T03:59:09;99865.7;;;-11.99;100.0
63691;BME280;49837;57.280;27.070;2023-12-04T04:00:10;99865.81;;;-12.0;100.0
63691;BME280;49837;57.280;27.070;2023-12-04T04:01:08;99866.72;;;-11.99;100.0
63691;BME280;49837;57.280;27.070;2023-12-04T04:02:09;99863.33;;;-11.91;100.0
63691;BME280;49837;57.280;27.070;2023-12-04T04:03:09;99862.02;;;-11.82;100.0
63691;BME280;49837;57.280;27.070;2023-12-04T04:04:09;99862.75;;;-11.72;100.0
63691;BME280;49837;57.280;27.070;2023-12-04T04:05:10;99861.58;;;-11.66;100.0
63691;BME280;49837;57.280;27.070;2023-12-04T04:06:10;99857.02;;;-11.73;100.0
63691;BME280;49837;57.280;27.070;2023-12-04T04:07:11;99859.31;;;-11.75;100.0
63691;BME280;49837;57.280;27.070;2023-12-04T04:08:11;99861.66;;;-11.77;100.0
63691;BME280;49837;57.280;27.070;2023-12-04T04:09:12;99857.92;;;-11.79;100.0
63691;BME280;49837;57.280;27.070;2023-12-04T04:10:12;99854.12;;;-11.78;100.0
63691;BME280;49837;57.280;27.070;2023-12-04T04:11:13;99858.59;;;-11.73;100.0
63691;BME280;49837;57.280;27.070;2023-12-04T04:12:13;99854.42;;;-11.77;100.0
63691;BME280;49837;57.280;27.070;2023-12-04T04:13:14;99852.81;;;-11.77;100.0
63691;BME280;49837;57.280;27.070;2023-12-04T04:14:14;99851.64;;;-11.77;100.0
63691;BME280;49837;57.280;27.070;2023-12-04T04:15:15;99851.64;;;-11.82;100.0
63691;BME280;49837;57.280;27.070;2023-12-04T04:16:16;99849.0;;;-11.89;100.0
63691;BME280;49837;57.280;27.070;2023-12-04T04:17:16;99846.45;;;-11.95;100.0
63691;BME280;49837;57.280;27.070;2023-12-04T04:18:16;99846.59;;;-12.03;100.0
63691;BME280;49837;57.280;27.070;2023-12-04T04:19:17;99851.28;;;-12.08;100.0
63691;BME280;49837;57.280;27.070;2023-12-04T04:20:17;99849.48;;;-12.15;100.0
63691;BME280;49837;57.280;27.070;2023-12-04T04:21:17;99850.62;;;-12.23;100.0
63691;BME280;49837;57.280;27.070;2023-12-04T04:22:21;99852.92;;;-12.21;100.0
63691;BME280;49837;57.280;27.070;2023-12-04T04:23:19;99846.58;;;-12.18;100.0
63691;BME280;49837;57.280;27.070;2023-12-04T04:24:19;99850.28;;;-12.15;100.0
63691;BME280;49837;57.280;27.070;2023-12-04T04:25:20;99849.59;;;-12.23;100.0
63691;BME280;49837;57.280;27.070;2023-12-04T04:26:20;99849.28;;;-12.33;100.0
63691;BME280;49837;57.280;27.070;2023-12-04T04:27:21;99855.07;;;-12.29;100.0
63691;BME280;49837;57.280;27.070;2023-12-04T04:28:21;99852.66;;;-12.31;100.0
63691;BME280;49837;57.280;27.070;2023-12-04T04:29:21;99852.8;;;-12.27;100.0
63691;BME280;49837;57.280;27.070;2023-12-04T04:30:22;99851.17;;;-12.27;100.0
63691;BME280;49837;57.280;27.070;2023-12-04T04:31:22;99855.59;;;-12.22;100.0
63691;BME280;49837;57.280;27.070;2023-12-04T04:32:23;99852.55;;;-12.23;100.0
63691;BME280;49837;57.280;27.070;2023-12-04T04:33:23;99852.3;;;-12.26;100.0
63691;BME280;49837;57.280;27.070;2023-12-04T04:34:24;99846.25;;;-12.27;100.0
63691;BME280;49837;57.280;27.070;2023-12-04T04:35:24;99843.34;;;-12.33;100.0
63691;BME280;49837;57.280;27.070;2023-12-04T04:36:25;99844.43;;;-12.28;100.0
63691;BME280;49837;57.280;27.070;2023-12-04T04:37:25;99843.41;;;-12.23;100.0
63691;BME280;49837;57.280;27.070;2023-12-04T04:38:26;99841.88;;;-12.27;100.0
63691;BME280;49837;57.280;27.070;2023-12-04T04:39:26;99845.2;;;-12.34;100.0
63691;BME280;49837;57.280;27.070;2023-12-04T04:40:26;99844.12;;;-12.36;100.0
63691;BME280;49837;57.280;27.070;2023-12-04T04:41:27;99844.12;;;-12.41;100.0
63691;BME280;49837;57.280;27.070;2023-12-04T04:42:27;99845.7;;;-12.42;100.0
63691;BME280;49837;57.280;27.070;2023-12-04T04:43:28;99846.0;;;-12.5;100.0
63691;BME280;49837;57.280;27.070;2023-12-04T04:44:28;99844.41;;;-12.37;100.0
63691;BME280;49837;57.280;27.070;2023-12-04T04:45:29;99846.53;;;-12.36;100.0
63691;BME280;49837;57.280;27.070;2023-12-04T04:46:29;99841.81;;;-12.37;100.0
63691;BME280;49837;57.280;27.070;2023-12-04T04:47:29;99840.47;;;-12.43;100.0
63691;BME280;49837;57.280;27.070;2023-12-04T04:48:30;99840.3;;;-12.5;100.0
63691;BME280;49837;57.280;27.070;2023-12-04T04:49:30;99842.0;;;-12.58;100.0
63691;BME280;49837;57.280;27.070;2023-12-04T04:50:31;99839.86;;;-12.6;100.0
63691;BME280;49837;57.280;27.070;2023-12-04T04:51:31;99840.95;;;-12.71;100.0
63691;BME280;49837;57.280;27.070;2023-12-04T04:52:32;99840.22;;;-12.75;100.0
63691;BME280;49837;57.280;27.070;2023-12-04T04:53:32;99841.92;;;-12.72;100.0
63691;BME280;49837;57.280;27.070;2023-12-04T04:54:33;99839.27;;;-12.75;100.0
63691;BME280;49837;57.280;27.070;2023-12-04T04:55:33;99840.68;;;-12.73;100.0
63691;BME280;49837;57.280;27.070;2023-12-04T04:56:35;99841.41;;;-12.7;100.0
63691;BME280;49837;57.280;27.070;2023-12-04T04:57:36;99835.5;;;-12.68;100.0
63691;BME280;49837;57.280;27.070;2023-12-04T04:58:36;99833.61;;;-12.56;100.0
63691;BME280;49837;57.280;27.070;2023-12-04T04:59:36;99826.81;;;-12.5;100.0
63691;BME280;49837;57.280;27.070;2023-12-04T05:00:37;99832.3;;;-12.5;100.0
63691;BME280;49837;57.280;27.070;2023-12-04T05:01:37;99829.47;;;-12.47;100.0
63691;BME280;49837;57.280;27.070;2023-12-04T05:02:38;99829.8;;;-12.42;100.0
63691;BME280;49837;57.280;27.070;2023-12-04T05:03:38;99828.38;;;-12.51;100.0
63691;BME280;49837;57.280;27.070;2023-12-04T05:04:39;99833.77;;;-12.57;100.0
63691;BME280;49837;57.280;27.070;2023-12-04T05:05:39;99831.81;;;-12.68;100.0
63691;BME280;49837;57.280;27.070;2023-12-04T05:06:39;99831.23;;;-12.71;100.0
63691;BME280;49837;57.280;27.070;2023-12-04T05:07:40;99827.89;;;-12.69;100.0
63691;BME280;49837;57.280;27.070;2023-12-04T05:08:40;99832.74;;;-12.78;100.0
63691;BME280;49837;57.280;27.070;2023-12-04T05:09:41;99831.98;;;-12.82;100.0
63691;BME280;49837;57.280;27.070;2023-12-04T05:10:41;99829.42;;;-12.81;100.0
63691;BME280;49837;57.280;27.070;2023-12-04T05:11:42;99830.63;;;-12.83;100.0
63691;BME280;49837;57.280;27.070;2023-12-04T05:12:42;99828.52;;;-12.8;100.0